Stroudsburg, Pennsylvania
Current Conditions -  °F | °C
As of 6:53 PM on Friday 19 Dec 2014 (Local Time) from KMPO Reporting Station
Overcast Overcast  
Wind Chill: 12°   Ceiling: 1400
Heat Index: 24°   Visibility: 10mi
Dew Point: 18°   Wind: 13mph
Humidity: 77%   Direction: 320°NW
Pressure: 30.08"   Gusts: 26mph
Location:  40.99°N, 75.19°W
Report Text: KMPO 192353Z AUTO 32011G23KT 10SM OVC014 M04/M08 A3008 RMK AO2 SLP212 T10441078 11033 21044 51017
Loading
Personal Weather Stations






























Interactive Weather Map New forecast layout! Learn more

10-Day Weather Forecast

Advertisements
Track Severe Weather on mobile